sensor_id;sensor_type;location;lat;lon;timestamp;P1;durP1;ratioP1;P2;durP2;ratioP2
16383;SDS011;8301;51.440;6.610;2023-01-24T00:01:01;0.62;;;0.62;;
16383;SDS011;8301;51.440;6.610;2023-01-24T00:03:28;0.40;;;0.40;;
16383;SDS011;8301;51.440;6.610;2023-01-24T00:05:56;0.30;;;0.30;;
16383;SDS011;8301;51.440;6.610;2023-01-24T00:08:23;0.30;;;0.30;;
16383;SDS011;8301;51.440;6.610;2023-01-24T00:11:03;0.33;;;0.33;;
16383;SDS011;8301;51.440;6.610;2023-01-24T00:13:27;0.40;;;0.40;;
16383;SDS011;8301;51.440;6.610;2023-01-24T00:18:34;0.82;;;0.82;;
16383;SDS011;8301;51.440;6.610;2023-01-24T00:21:03;0.40;;;0.40;;
16383;SDS011;8301;51.440;6.610;2023-01-24T00:23:45;0.50;;;0.50;;
16383;SDS011;8301;51.440;6.610;2023-01-24T00:26:15;0.30;;;0.30;;
16383;SDS011;8301;51.440;6.610;2023-01-24T00:28:44;0.40;;;0.40;;
16383;SDS011;8301;51.440;6.610;2023-01-24T00:31:13;0.50;;;0.50;;
16383;SDS011;8301;51.440;6.610;2023-01-24T00:33:41;0.70;;;0.70;;
16383;SDS011;8301;51.440;6.610;2023-01-24T00:36:08;0.35;;;0.35;;
16383;SDS011;8301;51.440;6.610;2023-01-24T00:38:37;0.50;;;0.50;;
16383;SDS011;8301;51.440;6.610;2023-01-24T00:41:04;0.40;;;0.40;;
16383;SDS011;8301;51.440;6.610;2023-01-24T00:43:32;0.33;;;0.33;;
16383;SDS011;8301;51.440;6.610;2023-01-24T00:45:59;0.50;;;0.50;;
16383;SDS011;8301;51.440;6.610;2023-01-24T00:48:28;0.78;;;0.78;;
16383;SDS011;8301;51.440;6.610;2023-01-24T00:50:56;3.72;;;1.85;;
16383;SDS011;8301;51.440;6.610;2023-01-24T00:53:24;1.15;;;1.15;;
16383;SDS011;8301;51.440;6.610;2023-01-24T00:55:51;0.50;;;0.50;;
16383;SDS011;8301;51.440;6.610;2023-01-24T00:58:22;0.40;;;0.40;;
16383;SDS011;8301;51.440;6.610;2023-01-24T01:00:49;1.30;;;1.20;;
16383;SDS011;8301;51.440;6.610;2023-01-24T01:03:19;0.50;;;0.50;;
16383;SDS011;8301;51.440;6.610;2023-01-24T01:05:46;0.40;;;0.40;;
16383;SDS011;8301;51.440;6.610;2023-01-24T01:08:15;0.60;;;0.60;;
16383;SDS011;8301;51.440;6.610;2023-01-24T01:10:42;8.65;;;7.05;;
16383;SDS011;8301;51.440;6.610;2023-01-24T01:13:11;0.35;;;0.35;;
16383;SDS011;8301;51.440;6.610;2023-01-24T01:15:39;0.40;;;0.40;;
16383;SDS011;8301;51.440;6.610;2023-01-24T01:18:08;0.40;;;0.40;;
16383;SDS011;8301;51.440;6.610;2023-01-24T01:20:35;0.40;;;0.40;;
16383;SDS011;8301;51.440;6.610;2023-01-24T01:23:03;5.62;;;5.15;;
16383;SDS011;8301;51.440;6.610;2023-01-24T01:25:31;0.40;;;0.40;;
16383;SDS011;8301;51.440;6.610;2023-01-24T01:27:58;0.37;;;0.37;;
16383;SDS011;8301;51.440;6.610;2023-01-24T01:30:26;0.40;;;0.40;;
16383;SDS011;8301;51.440;6.610;2023-01-24T01:32:54;0.40;;;0.40;;
16383;SDS011;8301;51.440;6.610;2023-01-24T01:35:22;0.45;;;0.45;;
16383;SDS011;8301;51.440;6.610;2023-01-24T01:37:50;0.40;;;0.40;;
16383;SDS011;8301;51.440;6.610;2023-01-24T01:40:18;0.40;;;0.40;;
16383;SDS011;8301;51.440;6.610;2023-01-24T01:42:49;0.40;;;0.40;;
16383;SDS011;8301;51.440;6.610;2023-01-24T01:45:31;0.85;;;0.85;;
16383;SDS011;8301;51.440;6.610;2023-01-24T01:48:03;0.60;;;0.60;;
16383;SDS011;8301;51.440;6.610;2023-01-24T01:50:53;0.40;;;0.40;;
16383;SDS011;8301;51.440;6.610;2023-01-24T01:53:24;0.40;;;0.40;;
16383;SDS011;8301;51.440;6.610;2023-01-24T01:56:29;1.02;;;1.02;;
16383;SDS011;8301;51.440;6.610;2023-01-24T01:58:31;0.50;;;0.50;;
16383;SDS011;8301;51.440;6.610;2023-01-24T02:01:01;0.40;;;0.40;;
16383;SDS011;8301;51.440;6.610;2023-01-24T02:03:31;0.40;;;0.40;;
16383;SDS011;8301;51.440;6.610;2023-01-24T02:06:06;0.37;;;0.37;;
16383;SDS011;8301;51.440;6.610;2023-01-24T02:08:38;0.33;;;0.33;;
16383;SDS011;8301;51.440;6.610;2023-01-24T02:11:09;0.40;;;0.40;;
16383;SDS011;8301;51.440;6.610;2023-01-24T02:13:55;0.37;;;0.37;;
16383;SDS011;8301;51.440;6.610;2023-01-24T02:16:25;4.40;;;4.00;;
16383;SDS011;8301;51.440;6.610;2023-01-24T02:18:53;0.50;;;0.50;;
16383;SDS011;8301;51.440;6.610;2023-01-24T02:21:23;0.40;;;0.40;;
16383;SDS011;8301;51.440;6.610;2023-01-24T02:24:02;0.40;;;0.40;;
16383;SDS011;8301;51.440;6.610;2023-01-24T02:26:31;0.40;;;0.40;;
16383;SDS011;8301;51.440;6.610;2023-01-24T02:29:10;0.95;;;0.95;;
16383;SDS011;8301;51.440;6.610;2023-01-24T02:34:22;0.40;;;0.40;;
16383;SDS011;8301;51.440;6.610;2023-01-24T02:36:55;0.47;;;0.47;;
16383;SDS011;8301;51.440;6.610;2023-01-24T02:39:23;0.40;;;0.40;;
16383;SDS011;8301;51.440;6.610;2023-01-24T02:41:57;0.37;;;0.37;;
16383;SDS011;8301;51.440;6.610;2023-01-24T02:44:37;0.40;;;0.40;;
16383;SDS011;8301;51.440;6.610;2023-01-24T02:47:19;0.40;;;0.40;;
16383;SDS011;8301;51.440;6.610;2023-01-24T02:49:47;0.40;;;0.40;;
16383;SDS011;8301;51.440;6.610;2023-01-24T02:52:15;0.50;;;0.50;;
16383;SDS011;8301;51.440;6.610;2023-01-24T02:55:00;0.40;;;0.40;;
16383;SDS011;8301;51.440;6.610;2023-01-24T02:57:27;0.40;;;0.40;;
16383;SDS011;8301;51.440;6.610;2023-01-24T03:00:13;0.40;;;0.40;;
16383;SDS011;8301;51.440;6.610;2023-01-24T03:02:41;1.82;;;1.40;;
16383;SDS011;8301;51.440;6.610;2023-01-24T03:05:09;0.35;;;0.35;;
16383;SDS011;8301;51.440;6.610;2023-01-24T03:07:37;0.40;;;0.40;;
16383;SDS011;8301;51.440;6.610;2023-01-24T03:10:10;0.40;;;0.40;;
16383;SDS011;8301;51.440;6.610;2023-01-24T03:12:39;0.30;;;0.30;;
16383;SDS011;8301;51.440;6.610;2023-01-24T03:15:27;0.40;;;0.40;;
16383;SDS011;8301;51.440;6.610;2023-01-24T03:18:13;4.45;;;4.25;;
16383;SDS011;8301;51.440;6.610;2023-01-24T03:20:59;2.67;;;2.47;;
16383;SDS011;8301;51.440;6.610;2023-01-24T03:23:44;0.33;;;0.33;;
16383;SDS011;8301;51.440;6.610;2023-01-24T03:26:29;0.40;;;0.40;;
16383;SDS011;8301;51.440;6.610;2023-01-24T03:29:15;0.40;;;0.40;;
16383;SDS011;8301;51.440;6.610;2023-01-24T03:32:01;0.40;;;0.40;;
16383;SDS011;8301;51.440;6.610;2023-01-24T03:34:47;0.35;;;0.35;;
16383;SDS011;8301;51.440;6.610;2023-01-24T03:37:18;0.40;;;0.40;;
16383;SDS011;8301;51.440;6.610;2023-01-24T03:40:06;0.40;;;0.40;;
16383;SDS011;8301;51.440;6.610;2023-01-24T03:42:35;0.40;;;0.40;;
16383;SDS011;8301;51.440;6.610;2023-01-24T03:45:05;0.35;;;0.35;;
16383;SDS011;8301;51.440;6.610;2023-01-24T03:47:34;0.40;;;0.40;;
16383;SDS011;8301;51.440;6.610;2023-01-24T03:50:03;0.93;;;0.93;;
16383;SDS011;8301;51.440;6.610;2023-01-24T03:52:49;0.40;;;0.40;;
16383;SDS011;8301;51.440;6.610;2023-01-24T03:55:18;0.60;;;0.60;;
16383;SDS011;8301;51.440;6.610;2023-01-24T03:57:47;0.30;;;0.30;;
16383;SDS011;8301;51.440;6.610;2023-01-24T04:00:15;0.40;;;0.40;;
16383;SDS011;8301;51.440;6.610;2023-01-24T04:02:43;0.40;;;0.40;;
16383;SDS011;8301;51.440;6.610;2023-01-24T04:05:14;0.47;;;0.47;;
16383;SDS011;8301;51.440;6.610;2023-01-24T04:07:43;0.40;;;0.40;;
16383;SDS011;8301;51.440;6.610;2023-01-24T04:10:12;0.40;;;0.40;;
16383;SDS011;8301;51.440;6.610;2023-01-24T04:12:40;0.40;;;0.40;;
16383;SDS011;8301;51.440;6.610;2023-01-24T04:15:08;0.40;;;0.40;;
16383;SDS011;8301;51.440;6.610;2023-01-24T04:17:37;0.40;;;0.40;;
16383;SDS011;8301;51.440;6.610;2023-01-24T04:20:06;0.40;;;0.40;;
16383;SDS011;8301;51.440;6.610;2023-01-24T04:22:35;0.50;;;0.50;;
16383;SDS011;8301;51.440;6.610;2023-01-24T04:25:02;0.50;;;0.50;;
16383;SDS011;8301;51.440;6.610;2023-01-24T04:27:30;0.40;;;0.40;;
16383;SDS011;8301;51.440;6.610;2023-01-24T04:29:57;0.40;;;0.40;;
16383;SDS011;8301;51.440;6.610;2023-01-24T04:32:25;0.50;;;0.50;;
16383;SDS011;8301;51.440;6.610;2023-01-24T04:34:55;0.33;;;0.33;;
16383;SDS011;8301;51.440;6.610;2023-01-24T04:37:25;0.40;;;0.40;;
16383;SDS011;8301;51.440;6.610;2023-01-24T04:39:53;0.40;;;0.40;;
16383;SDS011;8301;51.440;6.610;2023-01-24T04:42:21;0.40;;;0.40;;
16383;SDS011;8301;51.440;6.610;2023-01-24T04:44:48;0.40;;;0.40;;
16383;SDS011;8301;51.440;6.610;2023-01-24T04:47:16;0.50;;;0.50;;
16383;SDS011;8301;51.440;6.610;2023-01-24T04:49:43;0.30;;;0.30;;
16383;SDS011;8301;51.440;6.610;2023-01-24T04:52:11;0.40;;;0.40;;
16383;SDS011;8301;51.440;6.610;2023-01-24T04:54:39;0.47;;;0.47;;
16383;SDS011;8301;51.440;6.610;2023-01-24T04:57:07;0.40;;;0.40;;
16383;SDS011;8301;51.440;6.610;2023-01-24T04:59:36;0.30;;;0.30;;
16383;SDS011;8301;51.440;6.610;2023-01-24T05:02:04;0.30;;;0.30;;
16383;SDS011;8301;51.440;6.610;2023-01-24T05:04:31;0.40;;;0.40;;
16383;SDS011;8301;51.440;6.610;2023-01-24T05:07:00;0.60;;;0.60;;
16383;SDS011;8301;51.440;6.610;2023-01-24T05:09:28;0.40;;;0.40;;
16383;SDS011;8301;51.440;6.610;2023-01-24T05:11:55;0.40;;;0.40;;
16383;SDS011;8301;51.440;6.610;2023-01-24T05:14:24;0.40;;;0.40;;
16383;SDS011;8301;51.440;6.610;2023-01-24T05:16:51;0.40;;;0.40;;
16383;SDS011;8301;51.440;6.610;2023-01-24T05:19:19;0.45;;;0.45;;
16383;SDS011;8301;51.440;6.610;2023-01-24T05:21:46;0.40;;;0.40;;
16383;SDS011;8301;51.440;6.610;2023-01-24T05:24:14;0.40;;;0.40;;
16383;SDS011;8301;51.440;6.610;2023-01-24T05:26:44;0.40;;;0.40;;
16383;SDS011;8301;51.440;6.610;2023-01-24T05:29:11;0.40;;;0.40;;
16383;SDS011;8301;51.440;6.610;2023-01-24T05:31:39;0.47;;;0.47;;
16383;SDS011;8301;51.440;6.610;2023-01-24T05:34:06;0.40;;;0.40;;
16383;SDS011;8301;51.440;6.610;2023-01-24T05:36:35;0.40;;;0.40;;
16383;SDS011;8301;51.440;6.610;2023-01-24T05:39:04;0.33;;;0.33;;
16383;SDS011;8301;51.440;6.610;2023-01-24T05:41:32;0.35;;;0.35;;
16383;SDS011;8301;51.440;6.610;2023-01-24T05:43:59;0.20;;;0.20;;
16383;SDS011;8301;51.440;6.610;2023-01-24T05:46:27;0.30;;;0.30;;
16383;SDS011;8301;51.440;6.610;2023-01-24T05:48:55;0.50;;;0.50;;
16383;SDS011;8301;51.440;6.610;2023-01-24T05:51:22;0.40;;;0.40;;
16383;SDS011;8301;51.440;6.610;2023-01-24T05:53:50;0.40;;;0.40;;
16383;SDS011;8301;51.440;6.610;2023-01-24T05:56:18;0.40;;;0.40;;
16383;SDS011;8301;51.440;6.610;2023-01-24T05:58:46;0.30;;;0.30;;
16383;SDS011;8301;51.440;6.610;2023-01-24T06:01:18;0.40;;;0.40;;
16383;SDS011;8301;51.440;6.610;2023-01-24T06:03:48;0.40;;;0.40;;
16383;SDS011;8301;51.440;6.610;2023-01-24T06:06:23;0.40;;;0.40;;
16383;SDS011;8301;51.440;6.610;2023-01-24T06:08:49;1.20;;;1.20;;
16383;SDS011;8301;51.440;6.610;2023-01-24T06:11:20;1.32;;;1.32;;
16383;SDS011;8301;51.440;6.610;2023-01-24T06:13:49;0.40;;;0.40;;
16383;SDS011;8301;51.440;6.610;2023-01-24T06:16:18;0.40;;;0.40;;
16383;SDS011;8301;51.440;6.610;2023-01-24T06:18:47;2.37;;;1.62;;
16383;SDS011;8301;51.440;6.610;2023-01-24T06:21:23;0.40;;;0.40;;
16383;SDS011;8301;51.440;6.610;2023-01-24T06:23:59;0.50;;;0.50;;
16383;SDS011;8301;51.440;6.610;2023-01-24T06:26:27;0.30;;;0.30;;
16383;SDS011;8301;51.440;6.610;2023-01-24T06:28:55;0.40;;;0.40;;
16383;SDS011;8301;51.440;6.610;2023-01-24T06:36:56;0.45;;;0.45;;
16383;SDS011;8301;51.440;6.610;2023-01-24T06:39:38;0.40;;;0.40;;
16383;SDS011;8301;51.440;6.610;2023-01-24T06:42:07;0.50;;;0.50;;
16383;SDS011;8301;51.440;6.610;2023-01-24T06:44:35;0.40;;;0.40;;
16383;SDS011;8301;51.440;6.610;2023-01-24T06:47:03;0.57;;;0.57;;
16383;SDS011;8301;51.440;6.610;2023-01-24T06:49:31;0.45;;;0.45;;
16383;SDS011;8301;51.440;6.610;2023-01-24T06:51:58;0.40;;;0.40;;
16383;SDS011;8301;51.440;6.610;2023-01-24T06:54:27;0.50;;;0.50;;
16383;SDS011;8301;51.440;6.610;2023-01-24T06:56:54;0.40;;;0.40;;
16383;SDS011;8301;51.440;6.610;2023-01-24T06:59:22;0.40;;;0.40;;
16383;SDS011;8301;51.440;6.610;2023-01-24T07:01:49;0.30;;;0.30;;
16383;SDS011;8301;51.440;6.610;2023-01-24T07:04:18;0.72;;;0.72;;
16383;SDS011;8301;51.440;6.610;2023-01-24T07:06:50;0.40;;;0.40;;
16383;SDS011;8301;51.440;6.610;2023-01-24T07:09:20;0.40;;;0.40;;
16383;SDS011;8301;51.440;6.610;2023-01-24T07:11:49;0.40;;;0.40;;
16383;SDS011;8301;51.440;6.610;2023-01-24T07:14:18;1.75;;;1.42;;
16383;SDS011;8301;51.440;6.610;2023-01-24T07:16:46;0.50;;;0.50;;
16383;SDS011;8301;51.440;6.610;2023-01-24T07:19:16;0.50;;;0.50;;
16383;SDS011;8301;51.440;6.610;2023-01-24T07:21:47;0.40;;;0.40;;
16383;SDS011;8301;51.440;6.610;2023-01-24T07:24:21;0.40;;;0.40;;
16383;SDS011;8301;51.440;6.610;2023-01-24T07:26:51;0.40;;;0.40;;
16383;SDS011;8301;51.440;6.610;2023-01-24T07:29:20;0.50;;;0.50;;
16383;SDS011;8301;51.440;6.610;2023-01-24T07:31:48;0.40;;;0.40;;
16383;SDS011;8301;51.440;6.610;2023-01-24T07:34:17;0.40;;;0.40;;
16383;SDS011;8301;51.440;6.610;2023-01-24T07:36:45;0.40;;;0.40;;
16383;SDS011;8301;51.440;6.610;2023-01-24T07:39:13;0.40;;;0.40;;
16383;SDS011;8301;51.440;6.610;2023-01-24T07:41:41;0.40;;;0.40;;
16383;SDS011;8301;51.440;6.610;2023-01-24T07:44:09;0.40;;;0.40;;
16383;SDS011;8301;51.440;6.610;2023-01-24T07:46:38;0.40;;;0.40;;
16383;SDS011;8301;51.440;6.610;2023-01-24T07:49:05;0.50;;;0.50;;
16383;SDS011;8301;51.440;6.610;2023-01-24T07:51:33;0.85;;;0.85;;
16383;SDS011;8301;51.440;6.610;2023-01-24T07:54:01;0.98;;;0.98;;
16383;SDS011;8301;51.440;6.610;2023-01-24T07:56:29;0.40;;;0.40;;
16383;SDS011;8301;51.440;6.610;2023-01-24T07:58:57;0.35;;;0.35;;
16383;SDS011;8301;51.440;6.610;2023-01-24T08:01:25;1.25;;;1.25;;
16383;SDS011;8301;51.440;6.610;2023-01-24T08:03:53;0.40;;;0.40;;
16383;SDS011;8301;51.440;6.610;2023-01-24T08:06:24;0.60;;;0.60;;
16383;SDS011;8301;51.440;6.610;2023-01-24T08:08:52;0.40;;;0.40;;
16383;SDS011;8301;51.440;6.610;2023-01-24T08:11:19;0.40;;;0.40;;
16383;SDS011;8301;51.440;6.610;2023-01-24T08:13:47;1.67;;;1.57;;
16383;SDS011;8301;51.440;6.610;2023-01-24T08:16:17;0.40;;;0.40;;
16383;SDS011;8301;51.440;6.610;2023-01-24T08:18:46;0.50;;;0.50;;
16383;SDS011;8301;51.440;6.610;2023-01-24T08:21:13;1.67;;;1.60;;
16383;SDS011;8301;51.440;6.610;2023-01-24T08:23:43;1.37;;;0.82;;
16383;SDS011;8301;51.440;6.610;2023-01-24T08:26:11;0.40;;;0.40;;
16383;SDS011;8301;51.440;6.610;2023-01-24T08:28:39;0.40;;;0.40;;
16383;SDS011;8301;51.440;6.610;2023-01-24T08:31:07;0.30;;;0.30;;
16383;SDS011;8301;51.440;6.610;2023-01-24T08:33:36;0.60;;;0.60;;
16383;SDS011;8301;51.440;6.610;2023-01-24T08:36:04;0.40;;;0.40;;
16383;SDS011;8301;51.440;6.610;2023-01-24T08:38:32;0.50;;;0.50;;
16383;SDS011;8301;51.440;6.610;2023-01-24T08:41:04;0.40;;;0.40;;
16383;SDS011;8301;51.440;6.610;2023-01-24T08:43:29;1.15;;;1.05;;
16383;SDS011;8301;51.440;6.610;2023-01-24T08:45:57;0.40;;;0.40;;
16383;SDS011;8301;51.440;6.610;2023-01-24T08:48:27;0.40;;;0.40;;
16383;SDS011;8301;51.440;6.610;2023-01-24T08:50:54;0.40;;;0.40;;
16383;SDS011;8301;51.440;6.610;2023-01-24T08:53:23;0.40;;;0.40;;
16383;SDS011;8301;51.440;6.610;2023-01-24T08:55:50;0.30;;;0.30;;
16383;SDS011;8301;51.440;6.610;2023-01-24T08:58:18;0.40;;;0.40;;
16383;SDS011;8301;51.440;6.610;2023-01-24T09:00:47;0.40;;;0.40;;
16383;SDS011;8301;51.440;6.610;2023-01-24T09:03:16;0.40;;;0.40;;
16383;SDS011;8301;51.440;6.610;2023-01-24T09:05:44;0.40;;;0.40;;
16383;SDS011;8301;51.440;6.610;2023-01-24T09:08:12;0.40;;;0.40;;
16383;SDS011;8301;51.440;6.610;2023-01-24T09:10:41;0.40;;;0.40;;
16383;SDS011;8301;51.440;6.610;2023-01-24T09:13:09;0.50;;;0.50;;
16383;SDS011;8301;51.440;6.610;2023-01-24T09:15:37;0.40;;;0.40;;
16383;SDS011;8301;51.440;6.610;2023-01-24T09:18:04;0.40;;;0.40;;
16383;SDS011;8301;51.440;6.610;2023-01-24T09:20:33;0.40;;;0.40;;
16383;SDS011;8301;51.440;6.610;2023-01-24T09:23:06;0.70;;;0.68;;
16383;SDS011;8301;51.440;6.610;2023-01-24T09:25:37;0.40;;;0.40;;
16383;SDS011;8301;51.440;6.610;2023-01-24T09:28:05;0.40;;;0.40;;
16383;SDS011;8301;51.440;6.610;2023-01-24T09:30:34;0.40;;;0.40;;
16383;SDS011;8301;51.440;6.610;2023-01-24T09:33:04;0.40;;;0.40;;
16383;SDS011;8301;51.440;6.610;2023-01-24T09:35:31;0.33;;;0.33;;
16383;SDS011;8301;51.440;6.610;2023-01-24T09:37:59;0.40;;;0.40;;
16383;SDS011;8301;51.440;6.610;2023-01-24T09:45:36;0.40;;;0.40;;
16383;SDS011;8301;51.440;6.610;2023-01-24T09:48:06;0.72;;;0.72;;
16383;SDS011;8301;51.440;6.610;2023-01-24T09:50:38;0.40;;;0.40;;
16383;SDS011;8301;51.440;6.610;2023-01-24T09:53:18;0.47;;;0.47;;
16383;SDS011;8301;51.440;6.610;2023-01-24T09:55:49;0.40;;;0.40;;
16383;SDS011;8301;51.440;6.610;2023-01-24T10:01:05;0.40;;;0.40;;
16383;SDS011;8301;51.440;6.610;2023-01-24T10:03:29;0.40;;;0.40;;
16383;SDS011;8301;51.440;6.610;2023-01-24T10:06:00;0.40;;;0.40;;
16383;SDS011;8301;51.440;6.610;2023-01-24T10:08:59;0.60;;;0.60;;
16383;SDS011;8301;51.440;6.610;2023-01-24T10:11:45;0.40;;;0.40;;
16383;SDS011;8301;51.440;6.610;2023-01-24T10:14:34;0.40;;;0.40;;
16383;SDS011;8301;51.440;6.610;2023-01-24T10:17:21;0.40;;;0.40;;
16383;SDS011;8301;51.440;6.610;2023-01-24T10:22:45;0.30;;;0.30;;
16383;SDS011;8301;51.440;6.610;2023-01-24T10:25:43;0.40;;;0.40;;
16383;SDS011;8301;51.440;6.610;2023-01-24T10:28:35;1.65;;;1.30;;
16383;SDS011;8301;51.440;6.610;2023-01-24T10:31:11;0.40;;;0.40;;
16383;SDS011;8301;51.440;6.610;2023-01-24T10:33:51;0.30;;;0.30;;
16383;SDS011;8301;51.440;6.610;2023-01-24T10:36:28;0.30;;;0.30;;
16383;SDS011;8301;51.440;6.610;2023-01-24T10:39:11;712.02;;;346.15;;
16383;SDS011;8301;51.440;6.610;2023-01-24T10:41:50;0.30;;;0.30;;
16383;SDS011;8301;51.440;6.610;2023-01-24T10:44:30;0.30;;;0.30;;
16383;SDS011;8301;51.440;6.610;2023-01-24T10:49:53;0.30;;;0.30;;
16383;SDS011;8301;51.440;6.610;2023-01-24T10:52:27;0.37;;;0.37;;
16383;SDS011;8301;51.440;6.610;2023-01-24T10:54:59;3.67;;;2.62;;
16383;SDS011;8301;51.440;6.610;2023-01-24T10:57:35;0.30;;;0.30;;
16383;SDS011;8301;51.440;6.610;2023-01-24T11:00:17;195.55;;;129.15;;
16383;SDS011;8301;51.440;6.610;2023-01-24T11:02:52;868.00;;;600.22;;
16383;SDS011;8301;51.440;6.610;2023-01-24T11:05:34;0.40;;;0.40;;
16383;SDS011;8301;51.440;6.610;2023-01-24T11:08:02;140.25;;;101.90;;
16383;SDS011;8301;51.440;6.610;2023-01-24T11:10:35;192.72;;;146.90;;
16383;SDS011;8301;51.440;6.610;2023-01-24T11:15:59;0.30;;;0.30;;
16383;SDS011;8301;51.440;6.610;2023-01-24T11:18:23;27.52;;;24.65;;
16383;SDS011;8301;51.440;6.610;2023-01-24T11:21:14;563.20;;;413.52;;
16383;SDS011;8301;51.440;6.610;2023-01-24T11:23:39;1928.97;;;807.65;;
16383;SDS011;8301;51.440;6.610;2023-01-24T11:26:27;1999.90;;;999.90;;
16383;SDS011;8301;51.440;6.610;2023-01-24T11:31:33;714.47;;;296.93;;
16383;SDS011;8301;51.440;6.610;2023-01-24T11:34:08;1999.90;;;999.90;;
16383;SDS011;8301;51.440;6.610;2023-01-24T11:48:33;1999.90;;;999.90;;
16383;SDS011;8301;51.440;6.610;2023-01-24T11:50:28;1999.90;;;999.90;;
16383;SDS011;8301;51.440;6.610;2023-01-24T11:53:19;1999.90;;;999.90;;
16383;SDS011;8301;51.440;6.610;2023-01-24T11:56:08;1999.90;;;999.90;;
16383;SDS011;8301;51.440;6.610;2023-01-24T12:01:52;1999.90;;;999.90;;
16383;SDS011;8301;51.440;6.610;2023-01-24T12:04:35;1889.45;;;999.90;;
16383;SDS011;8301;51.440;6.610;2023-01-24T12:10:02;1999.90;;;999.90;;
16383;SDS011;8301;51.440;6.610;2023-01-24T12:12:33;1999.90;;;999.90;;
16383;SDS011;8301;51.440;6.610;2023-01-24T12:15:36;1999.90;;;999.90;;
16383;SDS011;8301;51.440;6.610;2023-01-24T12:18:22;1999.90;;;999.90;;
16383;SDS011;8301;51.440;6.610;2023-01-24T12:21:00;1999.90;;;999.90;;
16383;SDS011;8301;51.440;6.610;2023-01-24T12:26:08;1999.90;;;999.90;;
16383;SDS011;8301;51.440;6.610;2023-01-24T12:28:48;1999.90;;;999.90;;
16383;SDS011;8301;51.440;6.610;2023-01-24T12:31:33;1999.90;;;999.90;;
16383;SDS011;8301;51.440;6.610;2023-01-24T12:34:03;1999.90;;;999.90;;
16383;SDS011;8301;51.440;6.610;2023-01-24T12:36:42;1999.90;;;999.90;;
16383;SDS011;8301;51.440;6.610;2023-01-24T12:39:16;1999.90;;;999.90;;
16383;SDS011;8301;51.440;6.610;2023-01-24T12:41:45;1999.90;;;999.90;;
16383;SDS011;8301;51.440;6.610;2023-01-24T12:44:26;1999.90;;;999.90;;
16383;SDS011;8301;51.440;6.610;2023-01-24T12:47:04;1999.90;;;999.90;;
16383;SDS011;8301;51.440;6.610;2023-01-24T12:52:39;1999.90;;;999.90;;
16383;SDS011;8301;51.440;6.610;2023-01-24T12:57:53;1999.90;;;999.90;;
16383;SDS011;8301;51.440;6.610;2023-01-24T13:00:19;1999.90;;;999.90;;
16383;SDS011;8301;51.440;6.610;2023-01-24T13:08:22;1999.90;;;999.90;;
16383;SDS011;8301;51.440;6.610;2023-01-24T13:11:24;1999.90;;;999.90;;
16383;SDS011;8301;51.440;6.610;2023-01-24T13:13:57;1999.90;;;999.90;;
16383;SDS011;8301;51.440;6.610;2023-01-24T13:16:30;1999.90;;;999.90;;
16383;SDS011;8301;51.440;6.610;2023-01-24T13:21:29;1999.90;;;999.90;;
16383;SDS011;8301;51.440;6.610;2023-01-24T13:24:12;1999.90;;;999.90;;
16383;SDS011;8301;51.440;6.610;2023-01-24T13:26:55;1999.90;;;999.90;;
16383;SDS011;8301;51.440;6.610;2023-01-24T13:32:04;1999.90;;;999.90;;
